createdAt,value
2019-05-23T00:02:30.062Z,10.10
2019-05-23T00:05:10.179Z,10.00
2019-05-23T00:07:41.030Z,10.00
2019-05-23T00:10:13.941Z,10.00
2019-05-23T00:12:49.979Z,10.10
2019-05-23T00:15:35.152Z,10.00
2019-05-23T00:18:06.692Z,10.00
2019-05-23T00:20:36.216Z,10.00
2019-05-23T00:23:07.078Z,10.00
2019-05-23T00:25:37.064Z,10.00
2019-05-23T00:28:07.217Z,9.90
2019-05-23T00:30:54.426Z,10.00
2019-05-23T00:33:24.934Z,9.90
2019-05-23T00:35:53.774Z,9.90
2019-05-23T00:38:22.527Z,9.80
2019-05-23T00:40:53.092Z,9.80
2019-05-23T00:43:22.880Z,9.80
2019-05-23T00:45:52.257Z,9.70
2019-05-23T00:48:21.570Z,9.70
2019-05-23T00:50:51.477Z,9.70
2019-05-23T00:53:21.380Z,9.70
2019-05-23T00:55:51.627Z,9.70
2019-05-23T00:58:21.266Z,9.60
2019-05-23T01:00:51.473Z,9.50
2019-05-23T01:03:22.528Z,9.50
2019-05-23T01:05:51.663Z,9.50
2019-05-23T01:08:22.130Z,9.50
2019-05-23T01:10:52.238Z,9.40
2019-05-23T01:13:24.112Z,9.40
2019-05-23T01:15:53.614Z,9.50
2019-05-23T01:18:25.125Z,9.50
2019-05-23T01:21:02.370Z,9.50
2019-05-23T01:23:39.255Z,9.60
2019-05-23T01:26:10.560Z,9.60
2019-05-23T01:28:40.411Z,9.60
2019-05-23T01:31:27.680Z,9.60
2019-05-23T01:33:59.063Z,9.60
2019-05-23T01:36:28.782Z,9.70
2019-05-23T01:38:57.966Z,9.70
2019-05-23T01:41:27.273Z,9.80
2019-05-23T01:43:56.995Z,9.80
2019-05-23T01:46:26.796Z,9.80
2019-05-23T01:48:56.745Z,9.80
2019-05-23T01:51:26.977Z,9.80
2019-05-23T01:53:57.469Z,9.80
2019-05-23T01:56:26.391Z,9.70
2019-05-23T01:58:55.569Z,9.70
2019-05-23T02:01:24.403Z,9.70
2019-05-23T02:03:53.714Z,9.70
2019-05-23T02:06:23.986Z,9.70
2019-05-23T02:08:53.571Z,9.70
2019-05-23T02:11:24.737Z,9.70
2019-05-23T02:13:54.020Z,9.80
2019-05-23T02:16:23.613Z,9.70
2019-05-23T02:18:54.295Z,9.60
2019-05-23T02:21:23.790Z,9.70
2019-05-23T02:23:54.741Z,9.70
2019-05-23T02:26:24.836Z,9.70
2019-05-23T02:28:53.866Z,9.60
2019-05-23T02:31:23.532Z,9.60
2019-05-23T02:33:53.450Z,9.70
2019-05-23T02:36:22.977Z,9.60
2019-05-23T02:38:53.929Z,9.70
2019-05-23T02:41:45.433Z,9.70
2019-05-23T02:44:19.228Z,9.70
2019-05-23T02:46:50.249Z,9.80
2019-05-23T02:49:21.511Z,9.80
2019-05-23T02:51:52.257Z,9.90
2019-05-23T02:54:24.426Z,9.90
2019-05-23T02:56:54.445Z,9.90
2019-05-23T02:59:39.755Z,9.90
2019-05-23T03:02:37.028Z,10.00
2019-05-23T03:05:09.874Z,10.00
2019-05-23T03:07:40.269Z,10.00
2019-05-23T03:10:09.978Z,10.00
2019-05-23T03:12:42.379Z,10.00
2019-05-23T03:15:14.984Z,10.00
2019-05-23T03:17:47.929Z,10.00
2019-05-23T03:20:19.750Z,10.00
2019-05-23T03:23:01.696Z,10.00
2019-05-23T03:25:37.018Z,10.00
2019-05-23T03:28:08.796Z,10.00
2019-05-23T03:31:25.595Z,10.00
2019-05-23T03:33:29.525Z,10.00
2019-05-23T03:36:00.519Z,9.90
2019-05-23T03:38:29.888Z,9.90
2019-05-23T03:40:58.970Z,9.90
2019-05-23T03:43:28.532Z,9.90
2019-05-23T03:46:02.726Z,9.80
2019-05-23T03:48:34.227Z,9.80
2019-05-23T03:51:02.967Z,9.80
2019-05-23T03:53:33.450Z,9.90
2019-05-23T03:56:04.300Z,9.90
2019-05-23T03:58:33.399Z,9.90
2019-05-23T04:01:04.756Z,10.00
2019-05-23T04:03:39.436Z,10.00
2019-05-23T04:06:07.180Z,10.00
2019-05-23T04:08:37.241Z,10.00
2019-05-23T04:11:06.602Z,10.00
2019-05-23T04:13:36.129Z,10.00
2019-05-23T04:16:04.929Z,10.00
2019-05-23T04:18:35.045Z,10.00
2019-05-23T04:21:05.695Z,10.00
2019-05-23T04:23:35.480Z,10.00
2019-05-23T04:26:04.407Z,10.00
2019-05-23T04:28:33.491Z,10.10
2019-05-23T04:31:02.777Z,10.10
2019-05-23T04:33:31.586Z,10.10
2019-05-23T04:36:01.421Z,10.10
2019-05-23T04:38:30.234Z,10.00
2019-05-23T04:41:00.109Z,10.00
2019-05-23T04:43:29.100Z,10.10
2019-05-23T04:45:59.025Z,10.10
2019-05-23T04:48:29.752Z,10.10
2019-05-23T04:51:00.273Z,10.10
2019-05-23T04:53:31.117Z,10.10
2019-05-23T04:56:01.385Z,10.10
2019-05-23T04:58:30.631Z,10.20
2019-05-23T05:01:00.551Z,10.20
2019-05-23T05:03:30.479Z,10.20
2019-05-23T05:05:59.788Z,10.30
2019-05-23T05:08:29.435Z,10.30
2019-05-23T05:10:59.314Z,10.30
2019-05-23T05:13:28.338Z,10.30
2019-05-23T05:15:58.227Z,10.30
2019-05-23T05:18:27.509Z,10.20
2019-05-23T05:20:57.442Z,10.20
2019-05-23T05:23:26.221Z,10.20
2019-05-23T05:25:55.624Z,10.20
2019-05-23T05:28:24.707Z,10.20
2019-05-23T05:30:54.015Z,10.20
2019-05-23T05:33:24.337Z,10.20
2019-05-23T05:35:53.864Z,10.20
2019-05-23T05:38:22.895Z,10.30
2019-05-23T05:40:52.158Z,10.30
2019-05-23T05:43:22.343Z,10.40
2019-05-23T05:45:51.719Z,10.40
2019-05-23T05:48:20.923Z,10.40
2019-05-23T05:50:50.818Z,10.40
2019-05-23T05:53:19.993Z,10.50
2019-05-23T05:55:49.602Z,10.50
2019-05-23T05:58:18.528Z,10.60
2019-05-23T06:00:49.220Z,10.60
2019-05-23T06:03:19.857Z,10.70
2019-05-23T06:05:54.185Z,10.70
2019-05-23T06:08:25.225Z,10.70
2019-05-23T06:10:55.837Z,10.70
2019-05-23T06:13:26.274Z,10.70
2019-05-23T06:15:56.752Z,10.70
2019-05-23T06:18:25.683Z,10.70
2019-05-23T06:20:56.136Z,10.80
2019-05-23T06:23:26.270Z,10.80
2019-05-23T06:25:55.432Z,10.80
2019-05-23T06:28:25.134Z,10.90
2019-05-23T06:30:55.099Z,10.90
2019-05-23T06:33:24.760Z,10.90
2019-05-23T06:35:54.602Z,10.90
2019-05-23T06:38:25.246Z,10.90
2019-05-23T06:40:55.894Z,10.90
2019-05-23T06:43:25.709Z,11.00
2019-05-23T06:45:55.496Z,10.90
2019-05-23T06:48:25.747Z,10.90
2019-05-23T06:50:54.477Z,11.00
2019-05-23T06:53:23.795Z,11.10
2019-05-23T06:55:52.785Z,11.10
2019-05-23T06:58:22.420Z,11.00
2019-05-23T07:00:52.548Z,11.00
2019-05-23T07:03:21.730Z,11.00
2019-05-23T07:05:52.151Z,11.10
2019-05-23T07:08:25.420Z,11.10
2019-05-23T07:10:54.759Z,11.20
2019-05-23T07:13:27.030Z,11.20
2019-05-23T07:15:56.251Z,11.30
2019-05-23T07:18:26.331Z,11.20
2019-05-23T07:20:55.186Z,11.20
2019-05-23T07:23:24.842Z,11.30
2019-05-23T07:25:55.353Z,11.20
2019-05-23T07:28:24.798Z,11.20
2019-05-23T07:30:54.579Z,11.30
2019-05-23T07:33:24.094Z,11.20
2019-05-23T07:35:54.442Z,11.20
2019-05-23T07:38:23.618Z,11.20
2019-05-23T07:40:53.725Z,11.30
2019-05-23T07:43:23.538Z,11.30
2019-05-23T07:45:54.499Z,11.30
2019-05-23T07:48:24.614Z,11.40
2019-05-23T07:50:53.683Z,11.50
2019-05-23T07:53:43.976Z,11.50
2019-05-23T07:56:14.987Z,11.60
2019-05-23T07:58:44.221Z,11.70
2019-05-23T08:01:14.797Z,11.80
2019-05-23T08:03:46.187Z,11.90
2019-05-23T08:06:15.351Z,11.90
2019-05-23T08:08:45.863Z,12.00
2019-05-23T08:11:14.978Z,12.10
2019-05-23T08:13:44.312Z,12.20
2019-05-23T08:16:13.959Z,12.20
2019-05-23T08:18:45.442Z,12.30
2019-05-23T08:21:15.016Z,12.40
2019-05-23T08:23:44.070Z,12.50
2019-05-23T08:26:14.855Z,12.50
2019-05-23T08:29:00.895Z,12.70
2019-05-23T08:31:14.910Z,12.70
2019-05-23T08:33:43.629Z,12.70
2019-05-23T08:36:13.236Z,12.90
2019-05-23T08:38:43.505Z,12.80
2019-05-23T08:41:12.403Z,12.90
2019-05-23T08:43:41.587Z,12.90
2019-05-23T08:46:11.001Z,12.90
2019-05-23T08:48:40.080Z,13.10
2019-05-23T08:51:09.262Z,13.10
2019-05-23T08:53:38.834Z,13.10
2019-05-23T08:56:18.502Z,13.10
2019-05-23T08:58:39.963Z,13.00
2019-05-23T09:01:11.814Z,13.00
2019-05-23T09:03:40.931Z,13.10
2019-05-23T09:06:11.362Z,13.10
2019-05-23T09:08:41.972Z,13.20
2019-05-23T09:11:11.824Z,13.20
2019-05-23T09:13:41.685Z,13.20
2019-05-23T09:16:11.323Z,13.30
2019-05-23T09:18:40.664Z,13.30
2019-05-23T09:21:10.552Z,13.30
2019-05-23T09:23:40.160Z,13.40
2019-05-23T09:26:09.882Z,13.40
2019-05-23T09:28:39.366Z,13.40
2019-05-23T09:31:09.380Z,13.40
2019-05-23T09:33:39.037Z,13.50
2019-05-23T09:36:08.569Z,13.40
2019-05-23T09:38:37.708Z,13.40
2019-05-23T09:41:06.940Z,13.40
2019-05-23T09:43:35.750Z,13.40
2019-05-23T09:46:04.599Z,13.30
2019-05-23T09:48:34.099Z,13.20
2019-05-23T09:51:02.827Z,13.10
2019-05-23T09:53:32.166Z,13.00
2019-05-23T09:56:01.277Z,13.00
2019-05-23T09:58:30.601Z,13.00
2019-05-23T10:00:59.375Z,13.00
2019-05-23T10:03:28.222Z,13.10
2019-05-23T10:05:57.359Z,13.20
2019-05-23T10:08:26.762Z,13.10
2019-05-23T10:10:57.399Z,13.10
2019-05-23T10:13:38.647Z,13.20
2019-05-23T10:16:04.242Z,13.20
2019-05-23T10:18:32.944Z,13.20
2019-05-23T10:21:02.285Z,13.20
2019-05-23T10:23:32.404Z,13.20
2019-05-23T10:26:01.533Z,13.30
2019-05-23T10:28:30.702Z,13.30
2019-05-23T10:30:59.663Z,13.30
2019-05-23T10:33:28.603Z,13.30
2019-05-23T10:36:00.777Z,13.40
2019-05-23T10:38:29.402Z,13.40
2019-05-23T10:40:59.998Z,13.40
2019-05-23T10:43:30.501Z,13.30
2019-05-23T10:45:59.274Z,13.30
2019-05-23T10:48:30.459Z,13.30
2019-05-23T10:50:59.850Z,13.30
2019-05-23T10:53:30.186Z,13.30
2019-05-23T10:55:59.790Z,13.40
2019-05-23T10:58:29.604Z,13.50
2019-05-23T11:00:59.064Z,13.50
2019-05-23T11:03:29.096Z,13.60
2019-05-23T11:06:13.294Z,13.50
2019-05-23T11:08:31.079Z,13.50
2019-05-23T11:11:00.018Z,13.50
2019-05-23T11:13:29.316Z,13.60
2019-05-23T11:15:58.103Z,13.80
2019-05-23T11:18:27.362Z,13.80
2019-05-23T11:20:56.459Z,13.80
2019-05-23T11:23:27.333Z,13.90
2019-05-23T11:26:00.863Z,14.00
2019-05-23T11:28:30.937Z,14.10
2019-05-23T11:31:00.584Z,14.10
2019-05-23T11:33:29.805Z,14.40
2019-05-23T11:35:59.233Z,14.60
2019-05-23T11:38:28.723Z,14.90
2019-05-23T11:40:58.079Z,14.90
2019-05-23T11:43:27.855Z,15.10
2019-05-23T11:46:05.075Z,15.30
2019-05-23T11:48:35.240Z,15.30
2019-05-23T11:51:04.583Z,15.50
2019-05-23T11:53:34.200Z,15.50
2019-05-23T11:56:03.082Z,15.60
2019-05-23T11:58:33.109Z,15.60
2019-05-23T12:01:20.185Z,15.70
2019-05-23T12:03:42.579Z,15.70
2019-05-23T12:06:11.636Z,15.70
2019-05-23T12:08:40.904Z,15.80
2019-05-23T12:11:10.136Z,15.80
2019-05-23T12:13:39.560Z,15.80
2019-05-23T12:16:11.039Z,15.90
2019-05-23T12:18:40.523Z,16.10
2019-05-23T12:21:11.060Z,16.20
2019-05-23T12:23:40.433Z,16.20
2019-05-23T12:26:09.738Z,16.20
2019-05-23T12:28:38.521Z,16.40
2019-05-23T12:31:08.109Z,16.50
2019-05-23T12:33:37.441Z,16.70
2019-05-23T12:36:06.823Z,16.60
2019-05-23T12:38:36.282Z,16.50
2019-05-23T12:41:08.075Z,16.30
2019-05-23T12:43:37.842Z,16.20
2019-05-23T12:46:06.990Z,16.20
2019-05-23T12:48:38.057Z,16.10
2019-05-23T12:51:09.022Z,15.90
2019-05-23T12:53:39.824Z,15.90
2019-05-23T12:56:09.962Z,15.80
2019-05-23T12:58:39.686Z,15.80
2019-05-23T13:01:11.127Z,15.80
2019-05-23T13:03:40.427Z,15.80
2019-05-23T13:06:10.062Z,15.80
2019-05-23T13:08:39.461Z,15.60
2019-05-23T13:11:08.564Z,15.50
2019-05-23T13:13:38.132Z,15.50
2019-05-23T13:16:07.338Z,15.40
2019-05-23T13:18:36.440Z,15.30
2019-05-23T13:21:05.657Z,15.30
2019-05-23T13:23:35.614Z,15.40
2019-05-23T13:26:05.675Z,15.40
2019-05-23T13:28:34.567Z,15.40
2019-05-23T13:31:03.865Z,15.40
2019-05-23T13:33:33.087Z,15.40
2019-05-23T13:36:02.192Z,15.50
2019-05-23T13:38:31.484Z,15.50
2019-05-23T13:41:00.966Z,15.60
2019-05-23T13:43:30.777Z,15.60
2019-05-23T13:45:59.613Z,15.60
2019-05-23T13:48:28.913Z,15.70
2019-05-23T13:50:57.958Z,15.80
2019-05-23T13:53:27.263Z,16.00
2019-05-23T13:55:57.017Z,16.10
2019-05-23T13:58:26.883Z,16.30
2019-05-23T14:00:55.816Z,16.50
2019-05-23T14:03:25.492Z,16.70
2019-05-23T14:05:54.820Z,16.70
2019-05-23T14:08:25.423Z,16.70
2019-05-23T14:10:55.310Z,16.60
2019-05-23T14:13:25.384Z,16.50
2019-05-23T14:15:55.744Z,16.50
2019-05-23T14:18:26.333Z,16.40
2019-05-23T14:20:55.512Z,16.30
2019-05-23T14:23:29.018Z,16.20
2019-05-23T14:26:00.272Z,16.20
2019-05-23T14:28:30.175Z,16.30
2019-05-23T14:31:02.038Z,16.20
2019-05-23T14:33:32.785Z,16.20
2019-05-23T14:36:03.528Z,16.10
2019-05-23T14:38:34.128Z,16.00
2019-05-23T14:41:04.586Z,15.90
2019-05-23T14:43:33.805Z,15.80
2019-05-23T14:46:07.281Z,15.80
2019-05-23T14:48:55.003Z,15.80
2019-05-23T14:51:43.761Z,15.60
2019-05-23T14:54:16.856Z,15.50
2019-05-23T14:56:46.077Z,15.40
2019-05-23T14:59:15.416Z,15.20
2019-05-23T15:01:44.635Z,15.10
2019-05-23T15:04:15.515Z,15.00
2019-05-23T15:06:44.593Z,14.80
2019-05-23T15:09:13.265Z,14.80
2019-05-23T15:11:42.460Z,14.80
2019-05-23T15:14:11.590Z,14.80
2019-05-23T15:16:40.669Z,14.70
2019-05-23T15:19:09.867Z,14.60
2019-05-23T15:21:38.965Z,14.60
2019-05-23T15:24:07.735Z,14.50
2019-05-23T15:26:36.486Z,14.50
2019-05-23T15:29:06.655Z,14.50
2019-05-23T15:31:35.659Z,14.50
2019-05-23T15:34:04.807Z,14.50
2019-05-23T15:36:33.512Z,14.60
2019-05-23T15:39:09.688Z,14.60
2019-05-23T15:41:32.767Z,14.60
2019-05-23T15:44:01.867Z,14.50
2019-05-23T15:46:31.218Z,14.50
2019-05-23T15:49:01.013Z,14.40
2019-05-23T15:51:31.646Z,14.30
2019-05-23T15:54:02.358Z,14.30
2019-05-23T15:56:33.066Z,14.40
2019-05-23T15:59:19.639Z,14.30
2019-05-23T16:01:53.389Z,14.30
2019-05-23T16:04:23.613Z,14.30
2019-05-23T16:06:53.935Z,14.30
2019-05-23T16:09:30.092Z,14.10
2019-05-23T16:11:55.645Z,14.10
2019-05-23T16:14:26.135Z,14.00
2019-05-23T16:16:56.872Z,14.00
2019-05-23T16:19:26.586Z,14.00
2019-05-23T16:21:55.886Z,14.00
2019-05-23T16:24:25.520Z,14.00
2019-05-23T16:26:55.135Z,13.90
2019-05-23T16:29:24.607Z,13.90
2019-05-23T16:31:53.394Z,13.90
2019-05-23T16:34:22.816Z,13.90
2019-05-23T16:36:52.013Z,13.90
2019-05-23T16:39:20.854Z,13.90
2019-05-23T16:41:49.924Z,14.10
2019-05-23T16:44:18.900Z,14.10
2019-05-23T16:46:47.684Z,14.20
2019-05-23T16:49:17.000Z,14.20
2019-05-23T16:51:46.269Z,14.20
2019-05-23T16:54:17.007Z,14.30
2019-05-23T16:57:08.329Z,14.30
2019-05-23T16:59:47.865Z,14.30
2019-05-23T17:02:24.487Z,14.30
2019-05-23T17:05:09.398Z,14.40
2019-05-23T17:07:39.862Z,14.40
2019-05-23T17:10:11.678Z,14.40
2019-05-23T17:12:45.092Z,14.30
2019-05-23T17:15:25.280Z,14.30
2019-05-23T17:18:02.810Z,14.30
2019-05-23T17:20:47.448Z,14.20
2019-05-23T17:23:49.808Z,14.20
2019-05-23T17:26:35.892Z,14.10
2019-05-23T17:29:06.753Z,14.10
2019-05-23T17:31:37.865Z,14.00
2019-05-23T17:34:07.459Z,14.00
2019-05-23T17:36:36.596Z,13.90
2019-05-23T17:39:09.440Z,13.90
2019-05-23T17:41:38.972Z,13.90
2019-05-23T17:44:08.093Z,13.90
2019-05-23T17:46:37.275Z,13.90
2019-05-23T17:49:07.087Z,13.90
2019-05-23T17:51:36.476Z,13.90
2019-05-23T17:54:05.609Z,13.90
2019-05-23T17:56:34.669Z,13.80
2019-05-23T17:59:03.787Z,13.70
2019-05-23T18:01:34.015Z,13.70
2019-05-23T18:04:03.919Z,13.60
2019-05-23T18:06:33.631Z,13.60
2019-05-23T18:09:04.573Z,13.50
2019-05-23T18:11:34.007Z,13.50
2019-05-23T18:14:02.977Z,13.40
2019-05-23T18:16:32.587Z,13.30
2019-05-23T18:19:02.194Z,13.30
2019-05-23T18:21:32.091Z,13.30
2019-05-23T18:24:00.938Z,13.20
2019-05-23T18:26:30.173Z,13.10
2019-05-23T18:28:59.651Z,13.10
2019-05-23T18:31:30.426Z,13.10
2019-05-23T18:33:59.639Z,13.00
2019-05-23T18:36:29.044Z,12.90
2019-05-23T18:38:58.440Z,12.90
2019-05-23T18:41:28.137Z,12.90
2019-05-23T18:43:57.899Z,12.80
2019-05-23T18:46:28.705Z,12.70
2019-05-23T18:48:57.781Z,12.70
2019-05-23T18:51:28.168Z,12.70
2019-05-23T18:53:57.737Z,12.70
2019-05-23T18:56:26.925Z,12.70
2019-05-23T18:58:56.038Z,12.60
2019-05-23T19:01:25.942Z,12.50
2019-05-23T19:03:55.277Z,12.60
2019-05-23T19:06:25.149Z,12.50
2019-05-23T19:08:54.739Z,12.40
2019-05-23T19:11:23.773Z,12.40
2019-05-23T19:13:53.072Z,12.40
2019-05-23T19:16:22.249Z,12.30
2019-05-23T19:18:51.363Z,12.20
2019-05-23T19:21:21.076Z,12.20
2019-05-23T19:23:50.356Z,12.20
2019-05-23T19:26:19.862Z,12.10
2019-05-23T19:28:48.972Z,12.10
2019-05-23T19:31:17.637Z,12.10
2019-05-23T19:33:48.082Z,12.10
2019-05-23T19:36:17.407Z,12.10
2019-05-23T19:38:46.308Z,12.10
2019-05-23T19:41:15.987Z,12.00
2019-05-23T19:43:48.248Z,12.00
2019-05-23T19:46:16.934Z,12.00
2019-05-23T19:48:47.245Z,12.00
2019-05-23T19:51:16.814Z,12.00
2019-05-23T19:53:45.679Z,12.00
2019-05-23T19:56:14.668Z,11.90
2019-05-23T19:58:43.844Z,11.80
2019-05-23T20:01:13.461Z,11.80
2019-05-23T20:03:43.064Z,11.80
2019-05-23T20:06:12.369Z,11.80
2019-05-23T20:08:41.358Z,11.80
2019-05-23T20:11:11.026Z,11.70
2019-05-23T20:13:40.170Z,11.70
2019-05-23T20:16:09.404Z,11.70
2019-05-23T20:18:38.465Z,11.70
2019-05-23T20:21:07.444Z,11.70
2019-05-23T20:23:36.225Z,11.70
2019-05-23T20:26:07.999Z,11.60
2019-05-23T20:28:38.934Z,11.60
2019-05-23T20:31:06.266Z,11.60
2019-05-23T20:33:35.506Z,11.50
2019-05-23T20:36:04.956Z,11.50
2019-05-23T20:38:34.112Z,11.50
2019-05-23T20:41:03.449Z,11.50
2019-05-23T20:43:32.215Z,11.50
2019-05-23T20:46:00.944Z,11.40
2019-05-23T20:48:30.535Z,11.40
2019-05-23T20:50:59.577Z,11.30
2019-05-23T20:53:28.388Z,11.30
2019-05-23T20:55:58.506Z,11.30
2019-05-23T20:58:27.272Z,11.30
2019-05-23T21:00:57.937Z,11.20
2019-05-23T21:03:27.836Z,11.20
2019-05-23T21:05:56.717Z,11.10
2019-05-23T21:08:26.263Z,11.10
2019-05-23T21:10:55.331Z,11.00
2019-05-23T21:13:24.079Z,11.00
2019-05-23T21:15:52.804Z,11.10
2019-05-23T21:18:21.802Z,11.10
2019-05-23T21:20:50.533Z,11.10
2019-05-23T21:23:19.377Z,11.00
2019-05-23T21:25:50.118Z,11.00
2019-05-23T21:28:19.933Z,10.90
2019-05-23T21:30:49.651Z,10.90
2019-05-23T21:33:18.757Z,10.90
2019-05-23T21:35:47.463Z,10.90
2019-05-23T21:38:16.344Z,10.90
2019-05-23T21:40:46.138Z,10.90
2019-05-23T21:43:15.231Z,10.80
2019-05-23T21:45:44.427Z,10.80
2019-05-23T21:48:13.643Z,10.80
2019-05-23T21:50:42.361Z,10.80
2019-05-23T21:53:11.835Z,10.70
2019-05-23T21:55:42.585Z,10.70
2019-05-23T21:58:13.342Z,10.70
2019-05-23T22:01:07.684Z,10.70
2019-05-23T22:03:40.664Z,10.70
2019-05-23T22:06:13.940Z,10.70
2019-05-23T22:08:43.196Z,10.70
2019-05-23T22:11:12.468Z,10.60
2019-05-23T22:13:41.660Z,10.60
2019-05-23T22:16:10.601Z,10.50
2019-05-23T22:18:40.577Z,10.60
2019-05-23T22:21:09.679Z,10.60
2019-05-23T22:23:38.784Z,10.50
2019-05-23T22:26:08.166Z,10.50
2019-05-23T22:28:37.128Z,10.50
2019-05-23T22:31:08.104Z,10.50
2019-05-23T22:33:42.207Z,10.50
2019-05-23T22:36:11.304Z,10.50
2019-05-23T22:38:40.038Z,10.50
2019-05-23T22:41:09.185Z,10.50
2019-05-23T22:43:38.052Z,10.50
2019-05-23T22:46:07.187Z,10.50
2019-05-23T22:48:35.939Z,10.50
2019-05-23T22:51:04.714Z,10.40
2019-05-23T22:53:33.637Z,10.50
2019-05-23T22:56:02.421Z,10.40
2019-05-23T22:58:31.435Z,10.40
2019-05-23T23:01:00.239Z,10.40
2019-05-23T23:03:29.432Z,10.30
2019-05-23T23:05:58.614Z,10.30
2019-05-23T23:08:28.529Z,10.30
2019-05-23T23:10:57.647Z,10.30
2019-05-23T23:13:38.121Z,10.30
2019-05-23T23:15:58.230Z,10.30
2019-05-23T23:18:27.275Z,10.20
2019-05-23T23:20:56.105Z,10.30
2019-05-23T23:23:25.397Z,10.30
2019-05-23T23:25:54.494Z,10.20
2019-05-23T23:28:23.584Z,10.30
2019-05-23T23:30:52.362Z,10.30
2019-05-23T23:33:21.624Z,10.20
2019-05-23T23:35:50.664Z,10.30
2019-05-23T23:38:19.758Z,10.30
2019-05-23T23:40:49.162Z,10.20
2019-05-23T23:43:18.264Z,10.20
2019-05-23T23:46:05.585Z,10.20
2019-05-23T23:48:52.495Z,10.20
2019-05-23T23:51:39.473Z,10.20
2019-05-23T23:54:26.428Z,10.20
2019-05-23T23:57:13.353Z,10.20
2019-05-23T23:59:41.721Z,10.20
